<?xml version="1.0" encoding="UTF-8" standalone="no" ?>
<gpx xmlns="http://www.topografix.com/GPX/1/1" xmlns:xsi="http://www.w3.org/2001/XMLSchema-instance" xsi:schemaLocation="http://www.topografix.com/GPX/1/1 http://www.topografix.com/GPX/1/1/gpx.xsd" version="1.1" creator="VisuGPX - https://www.visugpx.com">
  <metadata>
    <name>Larchamps 30km</name>
  </metadata>
  <trk>
    <name><![CDATA[Larchamps 30km_1]]></name>
    <trkseg>
      <trkpt lat="48.74698" lon="-0.57431">
        <ele>201</ele>
        <time>1989-12-31T00:00:00Z</time>
      </trkpt>
      <trkpt lat="48.74815" lon="-0.57475">
        <ele>199.6</ele>
        <time>1989-12-31T00:00:24Z</time>
      </trkpt>
      <trkpt lat="48.74848" lon="-0.5746">
        <ele>199.6</ele>
        <time>1989-12-31T00:00:31Z</time>
      </trkpt>
      <trkpt lat="48.74886" lon="-0.57454">
        <ele>198.2</ele>
        <time>1989-12-31T00:00:39Z</time>
      </trkpt>
      <trkpt lat="48.74979" lon="-0.57496">
        <ele>196.8</ele>
        <time>1989-12-31T00:00:59Z</time>
      </trkpt>
      <trkpt lat="48.75" lon="-0.57529">
        <ele>196.8</ele>
        <time>1989-12-31T00:01:06Z</time>
      </trkpt>
      <trkpt lat="48.75009" lon="-0.57499">
        <ele>196.2</ele>
        <time>1989-12-31T00:01:10Z</time>
      </trkpt>
      <trkpt lat="48.75048" lon="-0.5749">
        <ele>196.8</ele>
        <time>1989-12-31T00:01:19Z</time>
      </trkpt>
      <trkpt lat="48.75249" lon="-0.57556">
        <ele>192.4</ele>
        <time>1989-12-31T00:02:01Z</time>
      </trkpt>
      <trkpt lat="48.75312" lon="-0.57619">
        <ele>191.4</ele>
        <time>1989-12-31T00:02:17Z</time>
      </trkpt>
      <trkpt lat="48.75351" lon="-0.57693">
        <ele>191</ele>
        <time>1989-12-31T00:02:30Z</time>
      </trkpt>
      <trkpt lat="48.7535" lon="-0.57741">
        <ele>191.4</ele>
        <time>1989-12-31T00:02:36Z</time>
      </trkpt>
      <trkpt lat="48.75366" lon="-0.57791">
        <ele>191</ele>
        <time>1989-12-31T00:02:44Z</time>
      </trkpt>
      <trkpt lat="48.75342" lon="-0.57899">
        <ele>194.8</ele>
        <time>1989-12-31T00:03:00Z</time>
      </trkpt>
      <trkpt lat="48.75348" lon="-0.57907">
        <ele>194.8</ele>
        <time>1989-12-31T00:03:01Z</time>
      </trkpt>
      <trkpt lat="48.75475" lon="-0.58066">
        <ele>191.4</ele>
        <time>1989-12-31T00:03:35Z</time>
      </trkpt>
      <trkpt lat="48.75404" lon="-0.58124">
        <ele>197.6</ele>
        <time>1989-12-31T00:03:52Z</time>
      </trkpt>
      <trkpt lat="48.75375" lon="-0.58159">
        <ele>199.2</ele>
        <time>1989-12-31T00:04:00Z</time>
      </trkpt>
      <trkpt lat="48.75413" lon="-0.58246">
        <ele>201</ele>
        <time>1989-12-31T00:04:14Z</time>
      </trkpt>
      <trkpt lat="48.7549" lon="-0.58389">
        <ele>199.6</ele>
        <time>1989-12-31T00:04:40Z</time>
      </trkpt>
      <trkpt lat="48.75586" lon="-0.58495">
        <ele>195.2</ele>
        <time>1989-12-31T00:05:04Z</time>
      </trkpt>
      <trkpt lat="48.76068" lon="-0.58654">
        <ele>201</ele>
        <time>1989-12-31T00:06:47Z</time>
      </trkpt>
      <trkpt lat="48.76053" lon="-0.58745">
        <ele>199.6</ele>
        <time>1989-12-31T00:06:59Z</time>
      </trkpt>
      <trkpt lat="48.75976" lon="-0.5884">
        <ele>200.6</ele>
        <time>1989-12-31T00:07:20Z</time>
      </trkpt>
      <trkpt lat="48.75991" lon="-0.58938">
        <ele>197.6</ele>
        <time>1989-12-31T00:07:34Z</time>
      </trkpt>
      <trkpt lat="48.75926" lon="-0.59043">
        <ele>201.6</ele>
        <time>1989-12-31T00:07:54Z</time>
      </trkpt>
      <trkpt lat="48.75927" lon="-0.59059">
        <ele>202</ele>
        <time>1989-12-31T00:07:56Z</time>
      </trkpt>
      <trkpt lat="48.76065" lon="-0.5933">
        <ele>204.4</ele>
        <time>1989-12-31T00:08:43Z</time>
      </trkpt>
      <trkpt lat="48.76182" lon="-0.59632">
        <ele>203</ele>
        <time>1989-12-31T00:09:31Z</time>
      </trkpt>
      <trkpt lat="48.76223" lon="-0.59698">
        <ele>204.8</ele>
        <time>1989-12-31T00:09:43Z</time>
      </trkpt>
      <trkpt lat="48.76235" lon="-0.597">
        <ele>205.4</ele>
        <time>1989-12-31T00:09:46Z</time>
      </trkpt>
      <trkpt lat="48.76285" lon="-0.59833">
        <ele>213.6</ele>
        <time>1989-12-31T00:10:07Z</time>
      </trkpt>
      <trkpt lat="48.7627" lon="-0.59963">
        <ele>215</ele>
        <time>1989-12-31T00:10:25Z</time>
      </trkpt>
      <trkpt lat="48.76262" lon="-0.60035">
        <ele>212.2</ele>
        <time>1989-12-31T00:10:35Z</time>
      </trkpt>
      <trkpt lat="48.76258" lon="-0.60073">
        <ele>209.8</ele>
        <time>1989-12-31T00:10:40Z</time>
      </trkpt>
      <trkpt lat="48.76251" lon="-0.60141">
        <ele>204.8</ele>
        <time>1989-12-31T00:10:49Z</time>
      </trkpt>
      <trkpt lat="48.76239" lon="-0.60239">
        <ele>198.2</ele>
        <time>1989-12-31T00:11:03Z</time>
      </trkpt>
      <trkpt lat="48.76234" lon="-0.60289">
        <ele>197.6</ele>
        <time>1989-12-31T00:11:10Z</time>
      </trkpt>
      <trkpt lat="48.7623" lon="-0.6031">
        <ele>196.2</ele>
        <time>1989-12-31T00:11:13Z</time>
      </trkpt>
      <trkpt lat="48.76213" lon="-0.60375">
        <ele>201</ele>
        <time>1989-12-31T00:11:22Z</time>
      </trkpt>
      <trkpt lat="48.76193" lon="-0.60462">
        <ele>204</ele>
        <time>1989-12-31T00:11:35Z</time>
      </trkpt>
      <trkpt lat="48.76162" lon="-0.60585">
        <ele>204</ele>
        <time>1989-12-31T00:11:53Z</time>
      </trkpt>
      <trkpt lat="48.76075" lon="-0.60813">
        <ele>203.4</ele>
        <time>1989-12-31T00:12:29Z</time>
      </trkpt>
      <trkpt lat="48.76038" lon="-0.60854">
        <ele>204</ele>
        <time>1989-12-31T00:12:39Z</time>
      </trkpt>
      <trkpt lat="48.75984" lon="-0.60866">
        <ele>206.8</ele>
        <time>1989-12-31T00:12:50Z</time>
      </trkpt>
      <trkpt lat="48.75863" lon="-0.60803">
        <ele>214.6</ele>
        <time>1989-12-31T00:13:17Z</time>
      </trkpt>
      <trkpt lat="48.75806" lon="-0.60772">
        <ele>212.2</ele>
        <time>1989-12-31T00:13:29Z</time>
      </trkpt>
      <trkpt lat="48.75606" lon="-0.60872">
        <ele>221.2</ele>
        <time>1989-12-31T00:14:13Z</time>
      </trkpt>
      <trkpt lat="48.75503" lon="-0.60921">
        <ele>222.2</ele>
        <time>1989-12-31T00:14:35Z</time>
      </trkpt>
      <trkpt lat="48.75435" lon="-0.61028">
        <ele>225.6</ele>
        <time>1989-12-31T00:14:55Z</time>
      </trkpt>
      <trkpt lat="48.754" lon="-0.61036">
        <ele>226.6</ele>
        <time>1989-12-31T00:15:03Z</time>
      </trkpt>
      <trkpt lat="48.75296" lon="-0.60954">
        <ele>226</ele>
        <time>1989-12-31T00:15:27Z</time>
      </trkpt>
      <trkpt lat="48.75296" lon="-0.60937">
        <ele>225.6</ele>
        <time>1989-12-31T00:15:30Z</time>
      </trkpt>
      <trkpt lat="48.75338" lon="-0.6084">
        <ele>225.6</ele>
        <time>1989-12-31T00:15:45Z</time>
      </trkpt>
      <trkpt lat="48.75447" lon="-0.60712">
        <ele>225</ele>
        <time>1989-12-31T00:16:14Z</time>
      </trkpt>
      <trkpt lat="48.75444" lon="-0.60693">
        <ele>224.2</ele>
        <time>1989-12-31T00:16:17Z</time>
      </trkpt>
      <trkpt lat="48.75171" lon="-0.60846">
        <ele>225.6</ele>
        <time>1989-12-31T00:17:17Z</time>
      </trkpt>
      <trkpt lat="48.75094" lon="-0.6092">
        <ele>224.6</ele>
        <time>1989-12-31T00:17:36Z</time>
      </trkpt>
      <trkpt lat="48.74996" lon="-0.6104">
        <ele>223.6</ele>
        <time>1989-12-31T00:18:02Z</time>
      </trkpt>
      <trkpt lat="48.74882" lon="-0.6119">
        <ele>221.2</ele>
        <time>1989-12-31T00:18:33Z</time>
      </trkpt>
      <trkpt lat="48.74953" lon="-0.61296">
        <ele>225</ele>
        <time>1989-12-31T00:18:54Z</time>
      </trkpt>
      <trkpt lat="48.74985" lon="-0.61354">
        <ele>224.6</ele>
        <time>1989-12-31T00:19:04Z</time>
      </trkpt>
      <trkpt lat="48.75002" lon="-0.61352">
        <ele>225</ele>
        <time>1989-12-31T00:19:08Z</time>
      </trkpt>
      <trkpt lat="48.7516" lon="-0.61539">
        <ele>217.4</ele>
        <time>1989-12-31T00:19:49Z</time>
      </trkpt>
      <trkpt lat="48.75206" lon="-0.6165">
        <ele>214</ele>
        <time>1989-12-31T00:20:07Z</time>
      </trkpt>
      <trkpt lat="48.75313" lon="-0.61819">
        <ele>222.6</ele>
        <time>1989-12-31T00:20:39Z</time>
      </trkpt>
      <trkpt lat="48.75403" lon="-0.61988">
        <ele>206.4</ele>
        <time>1989-12-31T00:21:09Z</time>
      </trkpt>
      <trkpt lat="48.75409" lon="-0.62081">
        <ele>197.6</ele>
        <time>1989-12-31T00:21:22Z</time>
      </trkpt>
      <trkpt lat="48.75393" lon="-0.62162">
        <ele>202.4</ele>
        <time>1989-12-31T00:21:34Z</time>
      </trkpt>
      <trkpt lat="48.75361" lon="-0.62252">
        <ele>206.4</ele>
        <time>1989-12-31T00:21:48Z</time>
      </trkpt>
      <trkpt lat="48.75272" lon="-0.62375">
        <ele>219.4</ele>
        <time>1989-12-31T00:22:13Z</time>
      </trkpt>
      <trkpt lat="48.75252" lon="-0.62411">
        <ele>220.8</ele>
        <time>1989-12-31T00:22:19Z</time>
      </trkpt>
      <trkpt lat="48.75191" lon="-0.62653">
        <ele>235.2</ele>
        <time>1989-12-31T00:22:55Z</time>
      </trkpt>
      <trkpt lat="48.75162" lon="-0.62731">
        <ele>237.2</ele>
        <time>1989-12-31T00:23:07Z</time>
      </trkpt>
      <trkpt lat="48.75141" lon="-0.62766">
        <ele>239.6</ele>
        <time>1989-12-31T00:23:13Z</time>
      </trkpt>
      <trkpt lat="48.75109" lon="-0.62783">
        <ele>241.4</ele>
        <time>1989-12-31T00:23:20Z</time>
      </trkpt>
      <trkpt lat="48.74998" lon="-0.628">
        <ele>250</ele>
        <time>1989-12-31T00:23:43Z</time>
      </trkpt>
      <trkpt lat="48.74964" lon="-0.62801">
        <ele>251.6</ele>
        <time>1989-12-31T00:23:51Z</time>
      </trkpt>
      <trkpt lat="48.74771" lon="-0.62774">
        <ele>255.4</ele>
        <time>1989-12-31T00:24:31Z</time>
      </trkpt>
      <trkpt lat="48.7466" lon="-0.62794">
        <ele>257.2</ele>
        <time>1989-12-31T00:24:54Z</time>
      </trkpt>
      <trkpt lat="48.74625" lon="-0.62824">
        <ele>258.2</ele>
        <time>1989-12-31T00:25:02Z</time>
      </trkpt>
      <trkpt lat="48.74556" lon="-0.6292">
        <ele>260.2</ele>
        <time>1989-12-31T00:25:22Z</time>
      </trkpt>
      <trkpt lat="48.74438" lon="-0.63053">
        <ele>267</ele>
        <time>1989-12-31T00:25:52Z</time>
      </trkpt>
      <trkpt lat="48.74331" lon="-0.63193">
        <ele>271.8</ele>
        <time>1989-12-31T00:26:22Z</time>
      </trkpt>
      <trkpt lat="48.74284" lon="-0.63252">
        <ele>273.2</ele>
        <time>1989-12-31T00:26:34Z</time>
      </trkpt>
      <trkpt lat="48.74221" lon="-0.63282">
        <ele>274.6</ele>
        <time>1989-12-31T00:26:48Z</time>
      </trkpt>
      <trkpt lat="48.74116" lon="-0.63356">
        <ele>274.6</ele>
        <time>1989-12-31T00:27:12Z</time>
      </trkpt>
      <trkpt lat="48.74123" lon="-0.6344">
        <ele>267</ele>
        <time>1989-12-31T00:27:24Z</time>
      </trkpt>
      <trkpt lat="48.74151" lon="-0.63442">
        <ele>266.4</ele>
        <time>1989-12-31T00:27:29Z</time>
      </trkpt>
      <trkpt lat="48.74143" lon="-0.63448">
        <ele>266</ele>
        <time>1989-12-31T00:27:31Z</time>
      </trkpt>
      <trkpt lat="48.7412" lon="-0.63427">
        <ele>268.4</ele>
        <time>1989-12-31T00:27:37Z</time>
      </trkpt>
      <trkpt lat="48.74117" lon="-0.63357">
        <ele>274.6</ele>
        <time>1989-12-31T00:27:46Z</time>
      </trkpt>
      <trkpt lat="48.74101" lon="-0.63343">
        <ele>274.2</ele>
        <time>1989-12-31T00:27:50Z</time>
      </trkpt>
      <trkpt lat="48.73765" lon="-0.63535">
        <ele>265</ele>
        <time>1989-12-31T00:29:05Z</time>
      </trkpt>
      <trkpt lat="48.7378" lon="-0.63425">
        <ele>267.4</ele>
        <time>1989-12-31T00:29:20Z</time>
      </trkpt>
      <trkpt lat="48.73759" lon="-0.63287">
        <ele>269.4</ele>
        <time>1989-12-31T00:29:39Z</time>
      </trkpt>
      <trkpt lat="48.73765" lon="-0.6313">
        <ele>266</ele>
        <time>1989-12-31T00:30:01Z</time>
      </trkpt>
      <trkpt lat="48.7375" lon="-0.63122">
        <ele>262.6</ele>
        <time>1989-12-31T00:30:04Z</time>
      </trkpt>
      <trkpt lat="48.73578" lon="-0.63267">
        <ele>255.8</ele>
        <time>1989-12-31T00:30:45Z</time>
      </trkpt>
      <trkpt lat="48.73401" lon="-0.62981">
        <ele>250</ele>
        <time>1989-12-31T00:31:39Z</time>
      </trkpt>
      <trkpt lat="48.73386" lon="-0.62964">
        <ele>249.6</ele>
        <time>1989-12-31T00:31:42Z</time>
      </trkpt>
      <trkpt lat="48.73359" lon="-0.62967">
        <ele>250</ele>
        <time>1989-12-31T00:31:48Z</time>
      </trkpt>
      <trkpt lat="48.73326" lon="-0.63029">
        <ele>252</ele>
        <time>1989-12-31T00:31:59Z</time>
      </trkpt>
      <trkpt lat="48.73258" lon="-0.63145">
        <ele>254</ele>
        <time>1989-12-31T00:32:20Z</time>
      </trkpt>
      <trkpt lat="48.73118" lon="-0.6308">
        <ele>239</ele>
        <time>1989-12-31T00:32:51Z</time>
      </trkpt>
      <trkpt lat="48.73045" lon="-0.63182">
        <ele>232.8</ele>
        <time>1989-12-31T00:33:11Z</time>
      </trkpt>
      <trkpt lat="48.72857" lon="-0.63197">
        <ele>244.4</ele>
        <time>1989-12-31T00:33:50Z</time>
      </trkpt>
      <trkpt lat="48.72862" lon="-0.63329">
        <ele>247.2</ele>
        <time>1989-12-31T00:34:08Z</time>
      </trkpt>
      <trkpt lat="48.72843" lon="-0.63508">
        <ele>252</ele>
        <time>1989-12-31T00:34:33Z</time>
      </trkpt>
      <trkpt lat="48.72848" lon="-0.63544">
        <ele>255.4</ele>
        <time>1989-12-31T00:34:38Z</time>
      </trkpt>
      <trkpt lat="48.72868" lon="-0.63626">
        <ele>258.8</ele>
        <time>1989-12-31T00:34:50Z</time>
      </trkpt>
      <trkpt lat="48.72869" lon="-0.63679">
        <ele>260.2</ele>
        <time>1989-12-31T00:34:58Z</time>
      </trkpt>
      <trkpt lat="48.72851" lon="-0.63838">
        <ele>257.8</ele>
        <time>1989-12-31T00:35:20Z</time>
      </trkpt>
      <trkpt lat="48.72874" lon="-0.63965">
        <ele>258.2</ele>
        <time>1989-12-31T00:35:38Z</time>
      </trkpt>
      <trkpt lat="48.7285" lon="-0.64141">
        <ele>265</ele>
        <time>1989-12-31T00:36:02Z</time>
      </trkpt>
      <trkpt lat="48.72854" lon="-0.64224">
        <ele>267.4</ele>
        <time>1989-12-31T00:36:14Z</time>
      </trkpt>
      <trkpt lat="48.72845" lon="-0.64326">
        <ele>267</ele>
        <time>1989-12-31T00:36:28Z</time>
      </trkpt>
      <trkpt lat="48.729" lon="-0.64614">
        <ele>265</ele>
        <time>1989-12-31T00:37:09Z</time>
      </trkpt>
      <trkpt lat="48.72914" lon="-0.64668">
        <ele>260.6</ele>
        <time>1989-12-31T00:37:17Z</time>
      </trkpt>
      <trkpt lat="48.72907" lon="-0.64705">
        <ele>259.2</ele>
        <time>1989-12-31T00:37:22Z</time>
      </trkpt>
      <trkpt lat="48.72844" lon="-0.64794">
        <ele>258.8</ele>
        <time>1989-12-31T00:37:40Z</time>
      </trkpt>
      <trkpt lat="48.72847" lon="-0.64809">
        <ele>261.2</ele>
        <time>1989-12-31T00:37:42Z</time>
      </trkpt>
      <trkpt lat="48.72867" lon="-0.64867">
        <ele>263</ele>
        <time>1989-12-31T00:37:51Z</time>
      </trkpt>
      <trkpt lat="48.72872" lon="-0.65024">
        <ele>268.4</ele>
        <time>1989-12-31T00:38:13Z</time>
      </trkpt>
      <trkpt lat="48.72814" lon="-0.65168">
        <ele>272.2</ele>
        <time>1989-12-31T00:38:36Z</time>
      </trkpt>
      <trkpt lat="48.72801" lon="-0.65236">
        <ele>272.2</ele>
        <time>1989-12-31T00:38:45Z</time>
      </trkpt>
      <trkpt lat="48.72814" lon="-0.65324">
        <ele>271.2</ele>
        <time>1989-12-31T00:38:58Z</time>
      </trkpt>
      <trkpt lat="48.7278" lon="-0.65611">
        <ele>272.2</ele>
        <time>1989-12-31T00:39:38Z</time>
      </trkpt>
      <trkpt lat="48.72795" lon="-0.65779">
        <ele>271.8</ele>
        <time>1989-12-31T00:40:01Z</time>
      </trkpt>
      <trkpt lat="48.72782" lon="-0.658">
        <ele>271.2</ele>
        <time>1989-12-31T00:40:05Z</time>
      </trkpt>
      <trkpt lat="48.72689" lon="-0.65761">
        <ele>274.2</ele>
        <time>1989-12-31T00:40:25Z</time>
      </trkpt>
      <trkpt lat="48.72635" lon="-0.6574">
        <ele>275</ele>
        <time>1989-12-31T00:40:36Z</time>
      </trkpt>
      <trkpt lat="48.72509" lon="-0.65694">
        <ele>276</ele>
        <time>1989-12-31T00:41:03Z</time>
      </trkpt>
      <trkpt lat="48.72492" lon="-0.65703">
        <ele>277</ele>
        <time>1989-12-31T00:41:07Z</time>
      </trkpt>
      <trkpt lat="48.72417" lon="-0.65897">
        <ele>283.8</ele>
        <time>1989-12-31T00:41:38Z</time>
      </trkpt>
      <trkpt lat="48.72367" lon="-0.65971">
        <ele>291.4</ele>
        <time>1989-12-31T00:41:52Z</time>
      </trkpt>
      <trkpt lat="48.72317" lon="-0.66018">
        <ele>291.8</ele>
        <time>1989-12-31T00:42:04Z</time>
      </trkpt>
      <trkpt lat="48.72282" lon="-0.66044">
        <ele>289</ele>
        <time>1989-12-31T00:42:13Z</time>
      </trkpt>
      <trkpt lat="48.72201" lon="-0.66159">
        <ele>282.2</ele>
        <time>1989-12-31T00:42:36Z</time>
      </trkpt>
      <trkpt lat="48.72132" lon="-0.66166">
        <ele>282.2</ele>
        <time>1989-12-31T00:42:50Z</time>
      </trkpt>
      <trkpt lat="48.72115" lon="-0.66186">
        <ele>284.2</ele>
        <time>1989-12-31T00:42:54Z</time>
      </trkpt>
      <trkpt lat="48.72131" lon="-0.66314">
        <ele>286.6</ele>
        <time>1989-12-31T00:43:12Z</time>
      </trkpt>
      <trkpt lat="48.72103" lon="-0.6631">
        <ele>288</ele>
        <time>1989-12-31T00:43:18Z</time>
      </trkpt>
      <trkpt lat="48.72081" lon="-0.66389">
        <ele>291.8</ele>
        <time>1989-12-31T00:43:30Z</time>
      </trkpt>
      <trkpt lat="48.72026" lon="-0.66478">
        <ele>297.2</ele>
        <time>1989-12-31T00:43:47Z</time>
      </trkpt>
      <trkpt lat="48.71987" lon="-0.66516">
        <ele>297.2</ele>
        <time>1989-12-31T00:43:56Z</time>
      </trkpt>
      <trkpt lat="48.71957" lon="-0.66544">
        <ele>293.8</ele>
        <time>1989-12-31T00:44:03Z</time>
      </trkpt>
      <trkpt lat="48.71832" lon="-0.6679">
        <ele>280.8</ele>
        <time>1989-12-31T00:44:46Z</time>
      </trkpt>
      <trkpt lat="48.71816" lon="-0.6683">
        <ele>280.4</ele>
        <time>1989-12-31T00:44:52Z</time>
      </trkpt>
      <trkpt lat="48.71788" lon="-0.6693">
        <ele>273.2</ele>
        <time>1989-12-31T00:45:07Z</time>
      </trkpt>
      <trkpt lat="48.71755" lon="-0.66981">
        <ele>269.8</ele>
        <time>1989-12-31T00:45:17Z</time>
      </trkpt>
      <trkpt lat="48.71709" lon="-0.6716">
        <ele>279.4</ele>
        <time>1989-12-31T00:45:43Z</time>
      </trkpt>
      <trkpt lat="48.71593" lon="-0.67073">
        <ele>276.6</ele>
        <time>1989-12-31T00:46:10Z</time>
      </trkpt>
      <trkpt lat="48.71578" lon="-0.67081">
        <ele>275.6</ele>
        <time>1989-12-31T00:46:13Z</time>
      </trkpt>
      <trkpt lat="48.71559" lon="-0.67295">
        <ele>283.8</ele>
        <time>1989-12-31T00:46:43Z</time>
      </trkpt>
      <trkpt lat="48.71548" lon="-0.67377">
        <ele>283.8</ele>
        <time>1989-12-31T00:46:55Z</time>
      </trkpt>
      <trkpt lat="48.71486" lon="-0.67641">
        <ele>291.4</ele>
        <time>1989-12-31T00:47:33Z</time>
      </trkpt>
      <trkpt lat="48.71427" lon="-0.67829">
        <ele>284.6</ele>
        <time>1989-12-31T00:48:01Z</time>
      </trkpt>
      <trkpt lat="48.71398" lon="-0.67874">
        <ele>284.6</ele>
        <time>1989-12-31T00:48:10Z</time>
      </trkpt>
      <trkpt lat="48.7134" lon="-0.67921">
        <ele>287</ele>
        <time>1989-12-31T00:48:24Z</time>
      </trkpt>
      <trkpt lat="48.71323" lon="-0.67942">
        <ele>287.6</ele>
        <time>1989-12-31T00:48:28Z</time>
      </trkpt>
      <trkpt lat="48.71306" lon="-0.67926">
        <ele>289</ele>
        <time>1989-12-31T00:48:32Z</time>
      </trkpt>
      <trkpt lat="48.71233" lon="-0.67808">
        <ele>288</ele>
        <time>1989-12-31T00:48:55Z</time>
      </trkpt>
      <trkpt lat="48.71133" lon="-0.67587">
        <ele>283.2</ele>
        <time>1989-12-31T00:49:31Z</time>
      </trkpt>
      <trkpt lat="48.71025" lon="-0.67394">
        <ele>290</ele>
        <time>1989-12-31T00:50:06Z</time>
      </trkpt>
      <trkpt lat="48.70981" lon="-0.67299">
        <ele>287.6</ele>
        <time>1989-12-31T00:50:22Z</time>
      </trkpt>
      <trkpt lat="48.70936" lon="-0.67218">
        <ele>288.6</ele>
        <time>1989-12-31T00:50:36Z</time>
      </trkpt>
      <trkpt lat="48.70909" lon="-0.67204">
        <ele>287</ele>
        <time>1989-12-31T00:50:42Z</time>
      </trkpt>
      <trkpt lat="48.70896" lon="-0.67176">
        <ele>288.6</ele>
        <time>1989-12-31T00:50:47Z</time>
      </trkpt>
      <trkpt lat="48.70882" lon="-0.67138">
        <ele>288</ele>
        <time>1989-12-31T00:50:53Z</time>
      </trkpt>
      <trkpt lat="48.70854" lon="-0.67002">
        <ele>291.4</ele>
        <time>1989-12-31T00:51:12Z</time>
      </trkpt>
      <trkpt lat="48.70755" lon="-0.66898">
        <ele>296.2</ele>
        <time>1989-12-31T00:51:37Z</time>
      </trkpt>
      <trkpt lat="48.70737" lon="-0.66904">
        <ele>296.2</ele>
        <time>1989-12-31T00:51:41Z</time>
      </trkpt>
      <trkpt lat="48.70672" lon="-0.66852">
        <ele>294.8</ele>
        <time>1989-12-31T00:51:56Z</time>
      </trkpt>
      <trkpt lat="48.70624" lon="-0.66761">
        <ele>296.2</ele>
        <time>1989-12-31T00:52:12Z</time>
      </trkpt>
      <trkpt lat="48.70545" lon="-0.66643">
        <ele>290.4</ele>
        <time>1989-12-31T00:52:35Z</time>
      </trkpt>
      <trkpt lat="48.70463" lon="-0.66429">
        <ele>288</ele>
        <time>1989-12-31T00:53:09Z</time>
      </trkpt>
      <trkpt lat="48.7023" lon="-0.66018">
        <ele>285.2</ele>
        <time>1989-12-31T00:54:23Z</time>
      </trkpt>
      <trkpt lat="48.70163" lon="-0.65959">
        <ele>280.8</ele>
        <time>1989-12-31T00:54:39Z</time>
      </trkpt>
      <trkpt lat="48.70129" lon="-0.65928">
        <ele>276</ele>
        <time>1989-12-31T00:54:48Z</time>
      </trkpt>
      <trkpt lat="48.70074" lon="-0.65858">
        <ele>267.8</ele>
        <time>1989-12-31T00:55:03Z</time>
      </trkpt>
      <trkpt lat="48.70025" lon="-0.65756">
        <ele>264.4</ele>
        <time>1989-12-31T00:55:20Z</time>
      </trkpt>
      <trkpt lat="48.70045" lon="-0.65699">
        <ele>265.4</ele>
        <time>1989-12-31T00:55:29Z</time>
      </trkpt>
      <trkpt lat="48.7006" lon="-0.65686">
        <ele>265</ele>
        <time>1989-12-31T00:55:32Z</time>
      </trkpt>
      <trkpt lat="48.70053" lon="-0.6566">
        <ele>260.6</ele>
        <time>1989-12-31T00:55:36Z</time>
      </trkpt>
      <trkpt lat="48.69991" lon="-0.65574">
        <ele>253.4</ele>
        <time>1989-12-31T00:55:53Z</time>
      </trkpt>
      <trkpt lat="48.69933" lon="-0.6553">
        <ele>252</ele>
        <time>1989-12-31T00:56:07Z</time>
      </trkpt>
      <trkpt lat="48.69888" lon="-0.65526">
        <ele>251</ele>
        <time>1989-12-31T00:56:16Z</time>
      </trkpt>
      <trkpt lat="48.69862" lon="-0.65522">
        <ele>249.2</ele>
        <time>1989-12-31T00:56:22Z</time>
      </trkpt>
      <trkpt lat="48.69773" lon="-0.65443">
        <ele>243.8</ele>
        <time>1989-12-31T00:56:43Z</time>
      </trkpt>
      <trkpt lat="48.69728" lon="-0.65441">
        <ele>242.8</ele>
        <time>1989-12-31T00:56:52Z</time>
      </trkpt>
      <trkpt lat="48.69704" lon="-0.65391">
        <ele>244.4</ele>
        <time>1989-12-31T00:57:01Z</time>
      </trkpt>
      <trkpt lat="48.69686" lon="-0.65395">
        <ele>245.8</ele>
        <time>1989-12-31T00:57:05Z</time>
      </trkpt>
      <trkpt lat="48.69679" lon="-0.65418">
        <ele>246.2</ele>
        <time>1989-12-31T00:57:08Z</time>
      </trkpt>
      <trkpt lat="48.69633" lon="-0.65461">
        <ele>245.2</ele>
        <time>1989-12-31T00:57:19Z</time>
      </trkpt>
      <trkpt lat="48.69613" lon="-0.65451">
        <ele>247.2</ele>
        <time>1989-12-31T00:57:24Z</time>
      </trkpt>
      <trkpt lat="48.6958" lon="-0.65399">
        <ele>252</ele>
        <time>1989-12-31T00:57:34Z</time>
      </trkpt>
      <trkpt lat="48.69556" lon="-0.65386">
        <ele>252</ele>
        <time>1989-12-31T00:57:39Z</time>
      </trkpt>
      <trkpt lat="48.69478" lon="-0.65454">
        <ele>246.8</ele>
        <time>1989-12-31T00:57:57Z</time>
      </trkpt>
      <trkpt lat="48.69384" lon="-0.6557">
        <ele>236.6</ele>
        <time>1989-12-31T00:58:23Z</time>
      </trkpt>
      <trkpt lat="48.69254" lon="-0.65209">
        <ele>246.2</ele>
        <time>1989-12-31T00:59:19Z</time>
      </trkpt>
      <trkpt lat="48.69202" lon="-0.65012">
        <ele>246.8</ele>
        <time>1989-12-31T00:59:48Z</time>
      </trkpt>
      <trkpt lat="48.69188" lon="-0.64952">
        <ele>244.4</ele>
        <time>1989-12-31T00:59:57Z</time>
      </trkpt>
      <trkpt lat="48.69157" lon="-0.64916">
        <ele>242</ele>
        <time>1989-12-31T01:00:05Z</time>
      </trkpt>
      <trkpt lat="48.69161" lon="-0.64889">
        <ele>242</ele>
        <time>1989-12-31T01:00:08Z</time>
      </trkpt>
      <trkpt lat="48.69313" lon="-0.64803">
        <ele>257.8</ele>
        <time>1989-12-31T01:00:42Z</time>
      </trkpt>
      <trkpt lat="48.69341" lon="-0.64793">
        <ele>260.2</ele>
        <time>1989-12-31T01:00:48Z</time>
      </trkpt>
      <trkpt lat="48.69416" lon="-0.64796">
        <ele>263</ele>
        <time>1989-12-31T01:01:04Z</time>
      </trkpt>
      <trkpt lat="48.69452" lon="-0.64751">
        <ele>267.4</ele>
        <time>1989-12-31T01:01:13Z</time>
      </trkpt>
      <trkpt lat="48.69482" lon="-0.64741">
        <ele>270.2</ele>
        <time>1989-12-31T01:01:20Z</time>
      </trkpt>
      <trkpt lat="48.69674" lon="-0.64688">
        <ele>255.8</ele>
        <time>1989-12-31T01:02:00Z</time>
      </trkpt>
      <trkpt lat="48.70096" lon="-0.64484">
        <ele>272.6</ele>
        <time>1989-12-31T01:03:32Z</time>
      </trkpt>
      <trkpt lat="48.70042" lon="-0.64356">
        <ele>273.2</ele>
        <time>1989-12-31T01:03:53Z</time>
      </trkpt>
      <trkpt lat="48.69943" lon="-0.63992">
        <ele>269.8</ele>
        <time>1989-12-31T01:04:47Z</time>
      </trkpt>
      <trkpt lat="48.69679" lon="-0.63156">
        <ele>283.2</ele>
        <time>1989-12-31T01:06:54Z</time>
      </trkpt>
      <trkpt lat="48.69639" lon="-0.62998">
        <ele>283.2</ele>
        <time>1989-12-31T01:07:17Z</time>
      </trkpt>
      <trkpt lat="48.69634" lon="-0.62938">
        <ele>282.8</ele>
        <time>1989-12-31T01:07:25Z</time>
      </trkpt>
      <trkpt lat="48.69542" lon="-0.62681">
        <ele>279.8</ele>
        <time>1989-12-31T01:08:05Z</time>
      </trkpt>
      <trkpt lat="48.69683" lon="-0.62581">
        <ele>291.8</ele>
        <time>1989-12-31T01:08:38Z</time>
      </trkpt>
      <trkpt lat="48.69773" lon="-0.6252">
        <ele>295.2</ele>
        <time>1989-12-31T01:08:58Z</time>
      </trkpt>
      <trkpt lat="48.69887" lon="-0.62433">
        <ele>299.6</ele>
        <time>1989-12-31T01:09:25Z</time>
      </trkpt>
      <trkpt lat="48.70341" lon="-0.62115">
        <ele>282.2</ele>
        <time>1989-12-31T01:11:09Z</time>
      </trkpt>
      <trkpt lat="48.70537" lon="-0.61971">
        <ele>259.2</ele>
        <time>1989-12-31T01:11:54Z</time>
      </trkpt>
      <trkpt lat="48.70553" lon="-0.61972">
        <ele>258.8</ele>
        <time>1989-12-31T01:11:57Z</time>
      </trkpt>
      <trkpt lat="48.7055" lon="-0.61754">
        <ele>254.8</ele>
        <time>1989-12-31T01:12:27Z</time>
      </trkpt>
      <trkpt lat="48.70618" lon="-0.61562">
        <ele>257.8</ele>
        <time>1989-12-31T01:12:57Z</time>
      </trkpt>
      <trkpt lat="48.70634" lon="-0.61592">
        <ele>258.2</ele>
        <time>1989-12-31T01:13:02Z</time>
      </trkpt>
      <trkpt lat="48.70721" lon="-0.6156">
        <ele>260.2</ele>
        <time>1989-12-31T01:13:21Z</time>
      </trkpt>
      <trkpt lat="48.70906" lon="-0.6149">
        <ele>256.4</ele>
        <time>1989-12-31T01:14:00Z</time>
      </trkpt>
      <trkpt lat="48.71067" lon="-0.61386">
        <ele>262</ele>
        <time>1989-12-31T01:14:37Z</time>
      </trkpt>
      <trkpt lat="48.71124" lon="-0.61541">
        <ele>258.8</ele>
        <time>1989-12-31T01:15:01Z</time>
      </trkpt>
      <trkpt lat="48.71151" lon="-0.61551">
        <ele>259.2</ele>
        <time>1989-12-31T01:15:07Z</time>
      </trkpt>
      <trkpt lat="48.71255" lon="-0.61525">
        <ele>265.4</ele>
        <time>1989-12-31T01:15:29Z</time>
      </trkpt>
      <trkpt lat="48.71329" lon="-0.61507">
        <ele>265</ele>
        <time>1989-12-31T01:15:44Z</time>
      </trkpt>
      <trkpt lat="48.71372" lon="-0.61512">
        <ele>264</ele>
        <time>1989-12-31T01:15:53Z</time>
      </trkpt>
      <trkpt lat="48.71411" lon="-0.61474">
        <ele>267.4</ele>
        <time>1989-12-31T01:16:03Z</time>
      </trkpt>
      <trkpt lat="48.71505" lon="-0.61455">
        <ele>269.4</ele>
        <time>1989-12-31T01:16:23Z</time>
      </trkpt>
      <trkpt lat="48.71643" lon="-0.61479">
        <ele>261.6</ele>
        <time>1989-12-31T01:16:51Z</time>
      </trkpt>
      <trkpt lat="48.71688" lon="-0.61477">
        <ele>256.8</ele>
        <time>1989-12-31T01:17:01Z</time>
      </trkpt>
      <trkpt lat="48.71816" lon="-0.61428">
        <ele>252</ele>
        <time>1989-12-31T01:17:28Z</time>
      </trkpt>
      <trkpt lat="48.71905" lon="-0.61359">
        <ele>251.6</ele>
        <time>1989-12-31T01:17:49Z</time>
      </trkpt>
      <trkpt lat="48.71931" lon="-0.61295">
        <ele>249.6</ele>
        <time>1989-12-31T01:17:59Z</time>
      </trkpt>
      <trkpt lat="48.71956" lon="-0.61255">
        <ele>246.8</ele>
        <time>1989-12-31T01:18:07Z</time>
      </trkpt>
      <trkpt lat="48.72177" lon="-0.61004">
        <ele>229</ele>
        <time>1989-12-31T01:19:04Z</time>
      </trkpt>
      <trkpt lat="48.72249" lon="-0.60897">
        <ele>225.6</ele>
        <time>1989-12-31T01:19:25Z</time>
      </trkpt>
      <trkpt lat="48.72397" lon="-0.60657">
        <ele>220.2</ele>
        <time>1989-12-31T01:20:10Z</time>
      </trkpt>
      <trkpt lat="48.72431" lon="-0.60543">
        <ele>221.2</ele>
        <time>1989-12-31T01:20:27Z</time>
      </trkpt>
      <trkpt lat="48.72476" lon="-0.60419">
        <ele>218.4</ele>
        <time>1989-12-31T01:20:47Z</time>
      </trkpt>
      <trkpt lat="48.72656" lon="-0.60179">
        <ele>208.8</ele>
        <time>1989-12-31T01:21:36Z</time>
      </trkpt>
      <trkpt lat="48.73021" lon="-0.59831">
        <ele>204</ele>
        <time>1989-12-31T01:23:06Z</time>
      </trkpt>
      <trkpt lat="48.73191" lon="-0.5954">
        <ele>199.6</ele>
        <time>1989-12-31T01:23:59Z</time>
      </trkpt>
      <trkpt lat="48.73279" lon="-0.59438">
        <ele>200.6</ele>
        <time>1989-12-31T01:24:22Z</time>
      </trkpt>
      <trkpt lat="48.73378" lon="-0.5942">
        <ele>198.2</ele>
        <time>1989-12-31T01:24:43Z</time>
      </trkpt>
      <trkpt lat="48.73612" lon="-0.59261">
        <ele>195.2</ele>
        <time>1989-12-31T01:25:36Z</time>
      </trkpt>
      <trkpt lat="48.73629" lon="-0.59251">
        <ele>194.8</ele>
        <time>1989-12-31T01:25:40Z</time>
      </trkpt>
      <trkpt lat="48.73659" lon="-0.59216">
        <ele>193.4</ele>
        <time>1989-12-31T01:25:48Z</time>
      </trkpt>
      <trkpt lat="48.73823" lon="-0.58911">
        <ele>189.6</ele>
        <time>1989-12-31T01:26:41Z</time>
      </trkpt>
      <trkpt lat="48.73854" lon="-0.58887">
        <ele>189.6</ele>
        <time>1989-12-31T01:26:49Z</time>
      </trkpt>
      <trkpt lat="48.73894" lon="-0.58829">
        <ele>191.4</ele>
        <time>1989-12-31T01:27:00Z</time>
      </trkpt>
      <trkpt lat="48.73981" lon="-0.58765">
        <ele>193.8</ele>
        <time>1989-12-31T01:27:20Z</time>
      </trkpt>
      <trkpt lat="48.7402" lon="-0.58781">
        <ele>197.6</ele>
        <time>1989-12-31T01:27:29Z</time>
      </trkpt>
      <trkpt lat="48.74054" lon="-0.58763">
        <ele>198.2</ele>
        <time>1989-12-31T01:27:36Z</time>
      </trkpt>
      <trkpt lat="48.74196" lon="-0.58581">
        <ele>198.6</ele>
        <time>1989-12-31T01:28:15Z</time>
      </trkpt>
      <trkpt lat="48.74451" lon="-0.58042">
        <ele>193.4</ele>
        <time>1989-12-31T01:29:46Z</time>
      </trkpt>
      <trkpt lat="48.74613" lon="-0.57646">
        <ele>193.8</ele>
        <time>1989-12-31T01:30:50Z</time>
      </trkpt>
      <trkpt lat="48.74779" lon="-0.57192">
        <ele>186.6</ele>
        <time>1989-12-31T01:32:01Z</time>
      </trkpt>
      <trkpt lat="48.74795" lon="-0.57219">
        <ele>185.2</ele>
        <time>1989-12-31T01:32:05Z</time>
      </trkpt>
    </trkseg>
  </trk>
</gpx>